Terminal Aerodrome Forecast
Issued by NWS Sterling, VA

Current Version | Previous Version | Graphics & Text | Print | Product List | Glossary On
Versions: 1 2 3 4 5 6 7 8 9 10 11 12 13 14 15 16 17 18 19
891
FTUS41 KLWX 201231 AAA
TAFMRB
TAF AMD
KMRB 201231Z 2013/2112 21005KT 2SM BR SCT060 BKN200 WS020/24040KT
     FM201400 21005KT P6SM FEW060 SCT200
     FM201800 20010G17KT P6SM SCT250
     FM210100 19006KT P6SM SCT250=

USA.gov is the U.S. government's official web portal to all federal, state and local government web resources and services.